Sunday, February 1, 2015, 4:10 PM EST

KPOU, Poughkeepsie Dutchess Cty

Location: Wappingers Falls, NY, United States Lat: 41.633
Local Time: 4:10 PM EST (21:10 GMT) Lon: -73.883
Time Zone: US/Eastern Elev: 167 ft

Show me the last for .
Show Decoded

2015-02-01 15:53 METAR KPOU 012053Z AUTO 26004KT 10SM FEW046 BKN090 02/M09 A3012 RMK AO2 SLP198
                 T00171089 55005 TSNO =
2015-02-01 14:53 METAR KPOU 011953Z 05004KT 10SM OVC045 02/M07 A3012 RMK AO2 SLP197 T00171072 =
2015-02-01 13:53 METAR KPOU 011853Z 00000KT 10SM OVC041 02/M08 A3011 RMK AO2 SLP197 T00171083 =
2015-02-01 12:53 METAR KPOU 011753Z 27003KT 10SM OVC039 01/M07 A3013 RMK AO2 SLP204 T00111072
                 10011 21067 58017 =
2015-02-01 11:53 METAR KPOU 011653Z 00000KT 10SM SCT032 01/M08 A3016 RMK AO2 SLP211 T00111078 =
2015-02-01 10:53 METAR KPOU 011553Z 20004KT 10SM CLR M01/M08 A3017 RMK AO2 SLP218 T10061083 =
2015-02-01 09:53 METAR KPOU 011453Z 23004KT 10SM BKN046 M02/M09 A3018 RMK AO2 SLP220 T10221089
                 50009 =
2015-02-01 08:53 METAR KPOU 011353Z 22005KT 10SM OVC044 M04/M11 A3019 RMK AO2 SLP221 T10391106 =
2015-02-01 07:53 METAR KPOU 011253Z 21003KT 10SM OVC044 M06/M12 A3018 RMK AO2 SLP219 T10561122 =
2015-02-01 06:53 METAR KPOU 011153Z 21005KT 10SM BKN048 M07/M13 A3016 RMK AO2 SLP211 T10671128
                 11061 21167 53002 =
2015-02-01 05:53 METAR KPOU 011053Z AUTO 21005KT 10SM CLR M07/M13 A3016 =
2015-02-01 04:53 METAR KPOU 010953Z 00000KT 10SM BKN041 M07/M14 A3015 RMK AO2 SLP209 T10721139 =
2015-02-01 03:53 METAR KPOU 010853Z 21004KT 10SM FEW046 M08/M14 A3015 RMK AO2 SLP210 T10781144
                 58001 =
2015-02-01 02:53 METAR KPOU 010753Z 00000KT 10SM SCT049 OVC060 M12/M17 A3016 RMK AO2 SLP213
                 T11171167 =
2015-02-01 01:53 METAR KPOU 010653Z 00000KT 9SM BKN065 M16/M20 A3016 RMK AO2 SLP215 T11561200 =
2015-02-01 00:53 METAR KPOU 010553Z 00000KT 10SM CLR M16/M19 A3016 RMK AO2 SLP212 T11561194 11072
                 21156 58010 =
2015-01-31 23:53 METAR KPOU 010453Z 00000KT 10SM CLR M14/M19 A3017 RMK AO2 SLP215 T11441194
                 410331150 =
2015-01-31 22:53 METAR KPOU 010353Z 00000KT 10SM CLR M14/M18 A3018 RMK AO2 SLP219 T11391183 =
2015-01-31 21:53 METAR KPOU 010253Z 00000KT 10SM CLR M12/M18 A3019 RMK AO2 SLP222 T11171183 51007
                 =
2015-01-31 20:53 METAR KPOU 010153Z 00000KT 10SM CLR M10/M18 A3018 RMK AO2 SLP220 T11001183 =
2015-01-31 19:53 METAR KPOU 010053Z AUTO VRB03KT 10SM CLR M09/M18 A3019 RMK AO2 SLP222 T10891183
                 TSNO =
2015-01-31 18:53 METAR KPOU 312353Z AUTO 30007KT 10SM CLR M07/M18 A3017 RMK AO2 SLP215 T10721183
                 11033 21072 53024 TSNO =
2015-01-31 17:53 METAR KPOU 312253Z AUTO 32009KT 10SM CLR M06/M18 A3014 RMK AO2 SLP206 T10611183
                 TSNO =
2015-01-31 16:53 METAR KPOU 312153Z AUTO 30008KT 10SM CLR M05/M19 A3012 RMK AO2 SLP199 T10501194
                 TSNO =

Support USWX by starting your Amazon purchase here.